• Join FlightAware (Why Join?)
  • Login
  • US Flag 
07:53AM EDT


 

Airport Tracker/Info


-or-


 

Live Flight TrackerFlight Track Log ✈ DAL1349 ✈ 16-04-2013 ✈ KCRW - KATL

Flight Track Log - Related Links

Times and Time Zones

All times are in EDT time to prevent confusion due to time zone crossing. See the DAL1349 flight status page for this flight to view local times or setup timezone preferences in your user account.

Time Position Orientation Groundspeed Altitude Reporting Facility
EDT Latitude Longitude Course Direction KTS MPH feet Rate Location/Type
07:11AM 38.3456 -81.6225 207° Southwest 156 180 3,000  Level Indianapolis Center
07:12AM 38.2892 -81.6536 203° Southwest 221 254 5,900 3,540 Climbing Indianapolis Center
07:13AM 38.0771 -81.7531 202° Southwest  Level FlightAware Approximate
07:13AM 38.2058 -81.7025 205° Southwest 272 313 10,200  Level Indianapolis Center
07:14AM 37.9776 -81.8051 204° Southwest  Level FlightAware Approximate
07:14AM 38.1236 -81.7500 204° Southwest 320 368 12,800  Level Indianapolis Center
07:15AM 37.8790 -81.8598 204° Southwest  Level FlightAware Approximate
07:15AM 38.0350 -81.8008 204° Southwest 345 397 16,400  Level Indianapolis Center
07:16AM 37.7827 -81.9208 207° Southwest  Level FlightAware Approximate
07:16AM 37.9444 -81.8547 205° Southwest 356 410 19,200  Level Indianapolis Center
07:17AM 37.6867 -81.9824 207° Southwest  Level FlightAware Approximate
07:17AM 37.8481 -81.9092 204° Southwest 374 430 21,700  Level Indianapolis Center
07:18AM 37.7444 -81.9694 205° Southwest 388 447 24,000 2,100 Climbing Indianapolis Center
07:19AM 37.6389 -82.0292 204° Southwest 409 471 26,100 1,800 Climbing Indianapolis Center
07:20AM 37.5306 -82.0894 204° Southwest 422 486 27,800 1,560 Climbing Indianapolis Center
07:21AM 37.4194 -82.1531 204° Southwest 435 501 29,300 1,380 Climbing Indianapolis Center
07:22AM 37.3036 -82.2172 204° Southwest 450 518 30,700 1,560 Climbing Indianapolis Center
07:23AM 37.1881 -82.2833 205° Southwest 453 521 32,500 1,680 Climbing Indianapolis Center
07:24AM 37.0717 -82.3475 204° Southwest 453 521 34,200 1,620 Climbing Indianapolis Center
07:25AM 36.9572 -82.4111 204° Southwest 448 516 35,800 1,440 Climbing Indianapolis Center
07:26AM 36.8450 -82.4742 204° Southwest 441 507 37,200 1,020 Climbing Indianapolis Center
07:27AM 36.7144 -82.5458 204° Southwest 434 499 38,000 360 Climbing Indianapolis Center
07:28AM 36.6053 -82.6061 204° Southwest 425 489 38,000  Level Indianapolis Center
07:30AM 36.4944 -82.6672 204° Southwest 430 495 38,000 -60 Level Indianapolis Center
07:31AM 36.3828 -82.7286 204° Southwest 440 506 37,900 -540 Descending Atlanta Center
07:32AM 36.2708 -82.7897 204° Southwest 440 506 36,900 -960 Descending Atlanta Center
07:33AM 36.1528 -82.8558 204° Southwest 440 506 36,000 -960 Descending Atlanta Center
07:34AM 36.0406 -82.9167 204° Southwest 440 506 35,000 -540 Descending Atlanta Center
07:35AM 35.9286 -82.9769 204° Southwest 440 506 35,000  Level Atlanta Center
07:36AM 35.8183 -83.0350 203° Southwest 440 506 35,000  Level Atlanta Center
07:37AM 35.7019 -83.0747 195° South 440 506 35,000  Level Atlanta Center
07:38AM 35.5875 -83.1297 201° Southwest 440 506 35,000 -720 Level Atlanta Center
07:39AM 35.4733 -83.1844 201° Southwest 445 512 33,600 -1,500 Descending Atlanta Center
07:40AM 35.3608 -83.2367 201° Southwest 445 512 32,000 -1,560 Descending Atlanta Center
07:41AM 35.2486 -83.2936 203° Southwest 439 505 30,500 -1,440 Descending Atlanta Center
07:42AM 35.1447 -83.3453 202° Southwest 447 514 29,200 -1,440 Descending Atlanta Center
07:43AM 35.0239 -83.4022 201° Southwest 453 521 27,700 -1,560 Descending Atlanta Center
07:44AM 34.9114 -83.4586 202° Southwest 453 521 26,100 -1,620 Descending Atlanta Center
07:45AM 34.8011 -83.5075 200° South 447 514 24,500 -1,620 Descending Atlanta Center
07:46AM 34.6908 -83.5614 202° Southwest 433 498 22,900 -1,800 Descending Atlanta Center
07:47AM 34.5742 -83.6150 201° Southwest 425 489 21,000 -1,740 Descending Atlanta Center
07:48AM 34.4719 -83.6658 202° Southwest 413 475 19,500 -1,500 Descending Atlanta Center
07:49AM 34.3761 -83.7117 202° Southwest 393 452 18,000 -1,320 Descending Atlanta Center
07:50AM 34.2906 -83.7497 200° South 371 427 16,900 -1,200 Descending Atlanta Center
07:51AM 34.2053 -83.7903 201° Southwest 340 391 15,700 -1,200 Descending Atlanta Center
07:52AM 34.1258 -83.8306 203° Southwest 316 364 14,500 -900 Descending Atlanta Center
07:53AM 34.0550 -83.8783 209° Southwest 311 358 14,000 -720 Descending Atlanta Center
07:53AM 34.0167 -83.9167 220° Southwest 297 342 13,300 -1,020 Descending Atlanta TRACON
07:54AM 33.9667 -83.9833 228° Southwest 292 336 12,400 -720 Descending Atlanta TRACON
07:55AM 33.9000 -84.0500 220° Southwest 286 329 12,000 -240 Descending Atlanta TRACON
07:56AM 33.8500 -84.1333 234° Southwest 287 330 12,000  Level Atlanta TRACON
07:57AM 33.8167 -84.2000 239° Southwest 286 329 12,000  Level Atlanta TRACON
07:58AM 33.7667 -84.2667 228° Southwest 285 328 12,000 -240 Level Atlanta TRACON
07:59AM 33.7333 -84.3500 244° Southwest 287 330 11,600 -1,140 Descending Atlanta TRACON
08:00AM 33.7333 -84.4500 270° West 288 331 9,800 -1,920 Descending Atlanta TRACON
08:01AM 33.7333 -84.5333 270° West 281 323 8,000 -1,740 Descending Atlanta TRACON
08:02AM 33.7333 -84.6333 270° West 268 308 6,500 -1,500 Descending Atlanta TRACON
08:03AM 33.7333 -84.7167 270° West 267 307 5,100 -840 Descending Atlanta TRACON
08:04AM 33.7333 -84.7833 270° West 224 258 5,000 -60 Descending Atlanta TRACON
08:05AM 33.7333 -84.8500 270° West 193 222 5,000  Level Atlanta TRACON
08:06AM 33.7000 -84.8667 203° Southwest 208 239 5,000  Level Atlanta TRACON
08:07AM 33.6667 -84.8167 129° Southeast 194 223 5,000  Level Atlanta TRACON
08:08AM 33.6500 -84.7500 107° East 190 219 5,000  Level Atlanta TRACON
08:09AM 33.6500 -84.7000 90° East 189 217 5,000 -480 Level Atlanta TRACON
08:10AM 33.6500 -84.6333 90° East 190 219 4,200 -900 Descending Atlanta TRACON
08:11AM 33.6500 -84.5833 90° East 177 204 3,300 -960 Descending Atlanta TRACON
08:12AM 33.6500 -84.5167 90° East 155 178 2,400 -900 Descending Atlanta TRACON